Chignik Lagoon, AK

2:56 AM AKST on March 02, 2015 (GMT -0900)
Chignik | Change Station
CLOSE
Current Station
Airport
Location: Chignik,
Elevation: 16 ft
Nearby Weather Stations

Elev 16 ft 56.31 °N, 158.37 °W | Updated 20 minutes ago

Overcast
Overcast
43 °F
Feels Like 38 °F
N
9
Wind Variable Wind from East
Gusts 17 mph

Today
High -- | Low -- °F
--% Chance of Precip.
Yesterday
High -- | Low -- °F
Precip. -- in
8:22 AM 7:09 PM
Waxing Gibbous, 91% visible
Pressure 30.02 in
Visibility 3.0 miles
Clouds Overcast 1100 ft
Windchill 38 °F
Dew Point 37 °F
Humidity 81%
Rainfall 0.75 in
Snow Depth Not available.
UV 0 out of 12
Pollen Not available.
Air Quality Not available.
Flu Activity Not available.
METAR PAJC 021136Z AUTO 09008G15KT 040V100 3SM OVC011 06/03 A3002 RMK AO1 P0010

More Conditions Fewer Conditions

Pressure 30.02 in
Visibility 3.0 miles
Clouds Overcast 1100 ft
Windchill 38 °F
Dew Point 37 °F
Humidity 81%
Rainfall 0.75 in
Snow Depth Not available.
UV 0 out of 12
Pollen Not available.
Air Quality Not available.
Flu Activity Not available.
METAR PAJC 021136Z AUTO 09008G15KT 040V100 3SM OVC011 06/03 A3002 RMK AO1 P0010

More Conditions Fewer Conditions

10-Day Weather Forecast

Almanac

Astronomy

Mar. 02, 2015 Rise Set
Actual Time
Civil Twilight
Nautical Twilight
Astronomical Twilight
Moon
Length of Visible Light
Length of Day
Tomorrow will be .
, % of the Moon is Illuminated

Today's Extremes

State Highs State Lows

Community

WunderPhotos

Upload Photos

1,801,757 photos uploaded!

WunderBlogs® & News

Nearby

Air Quality

  Air Quality AQ Index Pollutant
Not available.

Snow Depth

Station Depth Elevation

Earthquake Activity

City Distance Mag. Time & Date
Minimum magnitude displayed is 2.5.

Coastal Water Temperatures

Place Temperature

Nearby Weather Stations